sensor_id;sensor_type;location;lat;lon;timestamp;P1;durP1;ratioP1;P2;durP2;ratioP2
37339;SDS011;23223;51.006;7.610;2023-11-22T00:01:19;6.25;;;5.03;;
37339;SDS011;23223;51.006;7.610;2023-11-22T00:03:45;5.45;;;4.43;;
37339;SDS011;23223;51.006;7.610;2023-11-22T00:06:10;7.72;;;5.07;;
37339;SDS011;23223;51.006;7.610;2023-11-22T00:08:37;5.80;;;4.85;;
37339;SDS011;23223;51.006;7.610;2023-11-22T00:11:02;6.80;;;4.78;;
37339;SDS011;23223;51.006;7.610;2023-11-22T00:13:28;7.40;;;5.45;;
37339;SDS011;23223;51.006;7.610;2023-11-22T00:15:54;7.05;;;5.43;;
37339;SDS011;23223;51.006;7.610;2023-11-22T00:18:20;7.85;;;5.93;;
37339;SDS011;23223;51.006;7.610;2023-11-22T00:20:46;13.30;;;5.40;;
37339;SDS011;23223;51.006;7.610;2023-11-22T00:23:12;9.15;;;5.95;;
37339;SDS011;23223;51.006;7.610;2023-11-22T00:25:38;7.28;;;5.30;;
37339;SDS011;23223;51.006;7.610;2023-11-22T00:28:03;7.35;;;5.70;;
37339;SDS011;23223;51.006;7.610;2023-11-22T00:30:30;7.03;;;4.88;;
37339;SDS011;23223;51.006;7.610;2023-11-22T00:32:56;8.05;;;4.90;;
37339;SDS011;23223;51.006;7.610;2023-11-22T00:35:22;4.93;;;4.32;;
37339;SDS011;23223;51.006;7.610;2023-11-22T00:37:48;8.50;;;5.22;;
37339;SDS011;23223;51.006;7.610;2023-11-22T00:40:13;8.05;;;5.05;;
37339;SDS011;23223;51.006;7.610;2023-11-22T00:42:39;7.53;;;5.55;;
37339;SDS011;23223;51.006;7.610;2023-11-22T00:45:07;8.57;;;5.28;;
37339;SDS011;23223;51.006;7.610;2023-11-22T00:47:34;5.03;;;3.97;;
37339;SDS011;23223;51.006;7.610;2023-11-22T00:50:01;8.60;;;6.03;;
37339;SDS011;23223;51.006;7.610;2023-11-22T00:52:29;9.75;;;5.55;;
37339;SDS011;23223;51.006;7.610;2023-11-22T00:54:55;12.18;;;5.68;;
37339;SDS011;23223;51.006;7.610;2023-11-22T00:57:21;7.60;;;4.20;;
37339;SDS011;23223;51.006;7.610;2023-11-22T00:59:46;8.70;;;5.40;;
37339;SDS011;23223;51.006;7.610;2023-11-22T01:02:13;6.50;;;5.03;;
37339;SDS011;23223;51.006;7.610;2023-11-22T01:04:38;7.70;;;5.22;;
37339;SDS011;23223;51.006;7.610;2023-11-22T01:07:05;10.05;;;5.32;;
37339;SDS011;23223;51.006;7.610;2023-11-22T01:09:31;8.20;;;5.32;;
37339;SDS011;23223;51.006;7.610;2023-11-22T01:11:57;7.75;;;5.38;;
37339;SDS011;23223;51.006;7.610;2023-11-22T01:14:23;6.65;;;4.93;;
37339;SDS011;23223;51.006;7.610;2023-11-22T01:16:51;6.13;;;4.55;;
37339;SDS011;23223;51.006;7.610;2023-11-22T01:19:17;5.95;;;4.78;;
37339;SDS011;23223;51.006;7.610;2023-11-22T01:21:42;7.22;;;5.28;;
37339;SDS011;23223;51.006;7.610;2023-11-22T01:24:09;6.00;;;4.38;;
37339;SDS011;23223;51.006;7.610;2023-11-22T01:26:34;6.53;;;4.30;;
37339;SDS011;23223;51.006;7.610;2023-11-22T01:29:00;10.15;;;6.47;;
37339;SDS011;23223;51.006;7.610;2023-11-22T01:31:27;8.32;;;6.07;;
37339;SDS011;23223;51.006;7.610;2023-11-22T01:33:53;8.35;;;6.55;;
37339;SDS011;23223;51.006;7.610;2023-11-22T01:36:19;7.43;;;5.63;;
37339;SDS011;23223;51.006;7.610;2023-11-22T01:38:44;7.85;;;6.30;;
37339;SDS011;23223;51.006;7.610;2023-11-22T01:41:11;8.65;;;5.65;;
37339;SDS011;23223;51.006;7.610;2023-11-22T01:43:38;9.05;;;6.13;;
37339;SDS011;23223;51.006;7.610;2023-11-22T01:46:05;8.35;;;5.75;;
37339;SDS011;23223;51.006;7.610;2023-11-22T01:48:32;9.40;;;5.80;;
37339;SDS011;23223;51.006;7.610;2023-11-22T01:50:58;7.25;;;6.13;;
37339;SDS011;23223;51.006;7.610;2023-11-22T01:53:23;10.32;;;6.57;;
37339;SDS011;23223;51.006;7.610;2023-11-22T01:55:49;8.32;;;4.38;;
37339;SDS011;23223;51.006;7.610;2023-11-22T01:58:16;8.80;;;6.60;;
37339;SDS011;23223;51.006;7.610;2023-11-22T02:00:51;8.00;;;4.35;;
37339;SDS011;23223;51.006;7.610;2023-11-22T02:03:17;9.68;;;6.80;;
37339;SDS011;23223;51.006;7.610;2023-11-22T02:05:44;9.73;;;6.57;;
37339;SDS011;23223;51.006;7.610;2023-11-22T02:08:10;5.90;;;4.50;;
37339;SDS011;23223;51.006;7.610;2023-11-22T02:10:36;8.52;;;6.65;;
37339;SDS011;23223;51.006;7.610;2023-11-22T02:13:02;8.88;;;6.45;;
37339;SDS011;23223;51.006;7.610;2023-11-22T02:15:30;8.65;;;6.03;;
37339;SDS011;23223;51.006;7.610;2023-11-22T02:17:56;6.88;;;6.18;;
37339;SDS011;23223;51.006;7.610;2023-11-22T02:20:22;6.47;;;5.50;;
37339;SDS011;23223;51.006;7.610;2023-11-22T02:22:48;8.18;;;5.93;;
37339;SDS011;23223;51.006;7.610;2023-11-22T02:25:15;7.53;;;5.80;;
37339;SDS011;23223;51.006;7.610;2023-11-22T02:27:40;9.57;;;6.25;;
37339;SDS011;23223;51.006;7.610;2023-11-22T02:30:07;9.45;;;6.03;;
37339;SDS011;23223;51.006;7.610;2023-11-22T02:32:33;7.57;;;6.20;;
37339;SDS011;23223;51.006;7.610;2023-11-22T02:34:59;10.50;;;6.15;;
37339;SDS011;23223;51.006;7.610;2023-11-22T02:37:25;9.50;;;7.05;;
37339;SDS011;23223;51.006;7.610;2023-11-22T02:40:00;6.40;;;5.65;;
37339;SDS011;23223;51.006;7.610;2023-11-22T02:42:31;7.70;;;5.63;;
37339;SDS011;23223;51.006;7.610;2023-11-22T02:44:56;7.18;;;5.93;;
37339;SDS011;23223;51.006;7.610;2023-11-22T02:47:22;6.60;;;5.72;;
37339;SDS011;23223;51.006;7.610;2023-11-22T02:49:48;7.97;;;5.70;;
37339;SDS011;23223;51.006;7.610;2023-11-22T02:52:14;7.38;;;5.90;;
37339;SDS011;23223;51.006;7.610;2023-11-22T02:54:43;7.28;;;5.35;;
37339;SDS011;23223;51.006;7.610;2023-11-22T02:57:10;5.25;;;4.45;;
37339;SDS011;23223;51.006;7.610;2023-11-22T02:59:36;6.93;;;5.85;;
37339;SDS011;23223;51.006;7.610;2023-11-22T03:02:02;6.85;;;5.85;;
37339;SDS011;23223;51.006;7.610;2023-11-22T03:04:27;9.88;;;5.38;;
37339;SDS011;23223;51.006;7.610;2023-11-22T03:06:53;6.95;;;5.82;;
37339;SDS011;23223;51.006;7.610;2023-11-22T03:09:20;8.27;;;5.45;;
37339;SDS011;23223;51.006;7.610;2023-11-22T03:11:47;9.20;;;5.80;;
37339;SDS011;23223;51.006;7.610;2023-11-22T03:14:13;5.18;;;4.68;;
37339;SDS011;23223;51.006;7.610;2023-11-22T03:16:39;5.50;;;4.20;;
37339;SDS011;23223;51.006;7.610;2023-11-22T03:19:05;6.60;;;5.85;;
37339;SDS011;23223;51.006;7.610;2023-11-22T03:21:31;6.78;;;5.90;;
37339;SDS011;23223;51.006;7.610;2023-11-22T03:23:57;6.97;;;4.55;;
37339;SDS011;23223;51.006;7.610;2023-11-22T03:26:26;5.22;;;4.60;;
37339;SDS011;23223;51.006;7.610;2023-11-22T03:28:51;5.13;;;4.63;;
37339;SDS011;23223;51.006;7.610;2023-11-22T03:31:17;4.63;;;4.15;;
37339;SDS011;23223;51.006;7.610;2023-11-22T03:33:43;6.32;;;3.75;;
37339;SDS011;23223;51.006;7.610;2023-11-22T03:36:08;5.13;;;4.20;;
37339;SDS011;23223;51.006;7.610;2023-11-22T03:38:36;4.13;;;3.55;;
37339;SDS011;23223;51.006;7.610;2023-11-22T03:41:01;4.45;;;3.63;;
37339;SDS011;23223;51.006;7.610;2023-11-22T03:43:27;3.53;;;3.10;;
37339;SDS011;23223;51.006;7.610;2023-11-22T03:45:52;4.43;;;3.47;;
37339;SDS011;23223;51.006;7.610;2023-11-22T03:48:18;3.53;;;3.22;;
37339;SDS011;23223;51.006;7.610;2023-11-22T03:50:43;6.53;;;3.55;;
37339;SDS011;23223;51.006;7.610;2023-11-22T03:53:09;2.47;;;2.28;;
37339;SDS011;23223;51.006;7.610;2023-11-22T03:55:34;4.50;;;2.97;;
37339;SDS011;23223;51.006;7.610;2023-11-22T03:58:00;4.80;;;2.92;;
37339;SDS011;23223;51.006;7.610;2023-11-22T04:00:26;6.57;;;3.08;;
37339;SDS011;23223;51.006;7.610;2023-11-22T04:02:52;3.53;;;3.10;;
37339;SDS011;23223;51.006;7.610;2023-11-22T04:05:18;2.92;;;2.65;;
37339;SDS011;23223;51.006;7.610;2023-11-22T04:07:45;2.80;;;2.50;;
37339;SDS011;23223;51.006;7.610;2023-11-22T04:10:10;3.65;;;2.80;;
37339;SDS011;23223;51.006;7.610;2023-11-22T04:12:36;4.55;;;3.70;;
37339;SDS011;23223;51.006;7.610;2023-11-22T04:15:02;4.13;;;3.03;;
37339;SDS011;23223;51.006;7.610;2023-11-22T04:17:29;4.72;;;2.72;;
37339;SDS011;23223;51.006;7.610;2023-11-22T04:19:54;3.72;;;3.20;;
37339;SDS011;23223;51.006;7.610;2023-11-22T04:22:20;3.53;;;3.15;;
37339;SDS011;23223;51.006;7.610;2023-11-22T04:24:45;5.00;;;3.03;;
37339;SDS011;23223;51.006;7.610;2023-11-22T04:27:11;6.43;;;2.92;;
37339;SDS011;23223;51.006;7.610;2023-11-22T04:29:36;4.35;;;3.63;;
37339;SDS011;23223;51.006;7.610;2023-11-22T04:32:02;3.30;;;2.85;;
37339;SDS011;23223;51.006;7.610;2023-11-22T04:34:28;6.60;;;3.40;;
37339;SDS011;23223;51.006;7.610;2023-11-22T04:36:53;6.90;;;3.15;;
37339;SDS011;23223;51.006;7.610;2023-11-22T04:39:19;3.17;;;2.88;;
37339;SDS011;23223;51.006;7.610;2023-11-22T04:41:44;5.55;;;3.13;;
37339;SDS011;23223;51.006;7.610;2023-11-22T04:44:10;4.13;;;3.38;;
37339;SDS011;23223;51.006;7.610;2023-11-22T04:46:36;3.50;;;2.95;;
37339;SDS011;23223;51.006;7.610;2023-11-22T04:49:01;7.07;;;3.50;;
37339;SDS011;23223;51.006;7.610;2023-11-22T04:51:27;5.63;;;3.28;;
37339;SDS011;23223;51.006;7.610;2023-11-22T04:53:54;6.78;;;3.70;;
37339;SDS011;23223;51.006;7.610;2023-11-22T04:56:19;3.45;;;3.15;;
37339;SDS011;23223;51.006;7.610;2023-11-22T04:58:45;6.05;;;3.42;;
37339;SDS011;23223;51.006;7.610;2023-11-22T05:01:11;5.15;;;4.15;;
37339;SDS011;23223;51.006;7.610;2023-11-22T05:03:36;7.72;;;3.85;;
37339;SDS011;23223;51.006;7.610;2023-11-22T05:06:03;4.80;;;3.30;;
37339;SDS011;23223;51.006;7.610;2023-11-22T05:08:29;4.43;;;3.53;;
37339;SDS011;23223;51.006;7.610;2023-11-22T05:10:55;4.85;;;4.35;;
37339;SDS011;23223;51.006;7.610;2023-11-22T05:13:21;6.80;;;4.10;;
37339;SDS011;23223;51.006;7.610;2023-11-22T05:15:46;5.25;;;4.03;;
37339;SDS011;23223;51.006;7.610;2023-11-22T05:18:12;6.30;;;3.63;;
37339;SDS011;23223;51.006;7.610;2023-11-22T05:20:37;4.88;;;3.92;;
37339;SDS011;23223;51.006;7.610;2023-11-22T05:23:03;8.10;;;4.25;;
37339;SDS011;23223;51.006;7.610;2023-11-22T05:25:29;4.60;;;4.10;;
37339;SDS011;23223;51.006;7.610;2023-11-22T05:27:55;5.30;;;3.70;;
37339;SDS011;23223;51.006;7.610;2023-11-22T05:30:20;6.38;;;3.53;;
37339;SDS011;23223;51.006;7.610;2023-11-22T05:32:47;5.30;;;3.40;;
37339;SDS011;23223;51.006;7.610;2023-11-22T05:35:13;5.00;;;3.83;;
37339;SDS011;23223;51.006;7.610;2023-11-22T05:37:39;5.35;;;3.88;;
37339;SDS011;23223;51.006;7.610;2023-11-22T05:40:05;7.70;;;3.97;;
37339;SDS011;23223;51.006;7.610;2023-11-22T05:42:34;5.50;;;4.43;;
37339;SDS011;23223;51.006;7.610;2023-11-22T05:45:00;6.45;;;4.63;;
37339;SDS011;23223;51.006;7.610;2023-11-22T05:47:26;9.25;;;4.00;;
37339;SDS011;23223;51.006;7.610;2023-11-22T05:49:52;4.03;;;3.22;;
37339;SDS011;23223;51.006;7.610;2023-11-22T05:52:17;6.13;;;4.40;;
37339;SDS011;23223;51.006;7.610;2023-11-22T05:54:45;6.72;;;4.15;;
37339;SDS011;23223;51.006;7.610;2023-11-22T05:57:12;8.07;;;3.95;;
37339;SDS011;23223;51.006;7.610;2023-11-22T05:59:37;5.80;;;3.67;;
37339;SDS011;23223;51.006;7.610;2023-11-22T06:02:03;11.73;;;5.55;;
37339;SDS011;23223;51.006;7.610;2023-11-22T06:04:28;6.32;;;4.10;;
37339;SDS011;23223;51.006;7.610;2023-11-22T06:06:55;5.68;;;4.13;;
37339;SDS011;23223;51.006;7.610;2023-11-22T06:09:21;5.97;;;4.03;;
37339;SDS011;23223;51.006;7.610;2023-11-22T06:11:48;4.47;;;3.55;;
37339;SDS011;23223;51.006;7.610;2023-11-22T06:14:13;7.63;;;4.50;;
37339;SDS011;23223;51.006;7.610;2023-11-22T06:16:39;8.27;;;3.88;;
37339;SDS011;23223;51.006;7.610;2023-11-22T06:19:05;4.75;;;4.18;;
37339;SDS011;23223;51.006;7.610;2023-11-22T06:21:32;9.00;;;4.50;;
37339;SDS011;23223;51.006;7.610;2023-11-22T06:23:57;9.82;;;4.07;;
37339;SDS011;23223;51.006;7.610;2023-11-22T06:26:24;5.47;;;3.60;;
37339;SDS011;23223;51.006;7.610;2023-11-22T06:28:50;8.13;;;4.10;;
37339;SDS011;23223;51.006;7.610;2023-11-22T06:31:15;12.02;;;4.22;;
37339;SDS011;23223;51.006;7.610;2023-11-22T06:33:41;10.93;;;4.57;;
37339;SDS011;23223;51.006;7.610;2023-11-22T06:36:06;10.82;;;5.35;;
37339;SDS011;23223;51.006;7.610;2023-11-22T06:38:34;6.97;;;4.63;;
37339;SDS011;23223;51.006;7.610;2023-11-22T06:41:00;7.95;;;5.05;;
37339;SDS011;23223;51.006;7.610;2023-11-22T06:43:25;7.53;;;5.57;;
37339;SDS011;23223;51.006;7.610;2023-11-22T06:45:51;9.90;;;5.20;;
37339;SDS011;23223;51.006;7.610;2023-11-22T06:48:17;14.63;;;5.55;;
37339;SDS011;23223;51.006;7.610;2023-11-22T06:50:43;12.15;;;6.25;;
37339;SDS011;23223;51.006;7.610;2023-11-22T06:53:10;14.98;;;7.15;;
37339;SDS011;23223;51.006;7.610;2023-11-22T06:55:36;10.73;;;5.38;;
37339;SDS011;23223;51.006;7.610;2023-11-22T06:58:03;6.07;;;4.80;;
37339;SDS011;23223;51.006;7.610;2023-11-22T07:00:30;7.57;;;5.20;;
37339;SDS011;23223;51.006;7.610;2023-11-22T07:02:55;8.63;;;5.38;;
37339;SDS011;23223;51.006;7.610;2023-11-22T07:05:21;17.48;;;6.15;;
37339;SDS011;23223;51.006;7.610;2023-11-22T07:07:47;8.13;;;5.50;;
37339;SDS011;23223;51.006;7.610;2023-11-22T07:10:14;10.35;;;6.15;;
37339;SDS011;23223;51.006;7.610;2023-11-22T07:12:40;12.05;;;5.45;;
37339;SDS011;23223;51.006;7.610;2023-11-22T07:15:08;11.70;;;6.75;;
37339;SDS011;23223;51.006;7.610;2023-11-22T07:17:34;11.45;;;5.70;;
37339;SDS011;23223;51.006;7.610;2023-11-22T07:20:00;10.25;;;5.90;;
37339;SDS011;23223;51.006;7.610;2023-11-22T07:22:26;23.85;;;5.30;;
37339;SDS011;23223;51.006;7.610;2023-11-22T07:24:51;11.93;;;5.57;;
37339;SDS011;23223;51.006;7.610;2023-11-22T07:27:19;9.80;;;4.82;;
37339;SDS011;23223;51.006;7.610;2023-11-22T07:29:45;6.78;;;4.43;;
37339;SDS011;23223;51.006;7.610;2023-11-22T07:32:11;5.88;;;4.18;;
37339;SDS011;23223;51.006;7.610;2023-11-22T07:34:37;10.63;;;5.13;;
37339;SDS011;23223;51.006;7.610;2023-11-22T07:37:04;5.55;;;4.47;;
37339;SDS011;23223;51.006;7.610;2023-11-22T07:39:32;17.77;;;6.35;;
37339;SDS011;23223;51.006;7.610;2023-11-22T07:41:58;6.40;;;4.45;;
37339;SDS011;23223;51.006;7.610;2023-11-22T07:44:23;9.55;;;4.97;;
37339;SDS011;23223;51.006;7.610;2023-11-22T07:46:50;8.43;;;5.25;;
37339;SDS011;23223;51.006;7.610;2023-11-22T07:49:22;19.40;;;6.22;;
37339;SDS011;23223;51.006;7.610;2023-11-22T07:51:47;5.70;;;4.22;;
37339;SDS011;23223;51.006;7.610;2023-11-22T07:54:16;6.72;;;5.20;;
37339;SDS011;23223;51.006;7.610;2023-11-22T07:56:43;12.07;;;5.68;;
37339;SDS011;23223;51.006;7.610;2023-11-22T07:59:10;8.77;;;6.18;;
37339;SDS011;23223;51.006;7.610;2023-11-22T08:01:38;10.75;;;6.40;;
37339;SDS011;23223;51.006;7.610;2023-11-22T08:04:07;16.35;;;6.90;;
37339;SDS011;23223;51.006;7.610;2023-11-22T08:06:34;8.95;;;5.35;;
37339;SDS011;23223;51.006;7.610;2023-11-22T08:09:00;7.28;;;5.07;;
37339;SDS011;23223;51.006;7.610;2023-11-22T08:11:27;9.98;;;6.28;;
37339;SDS011;23223;51.006;7.610;2023-11-22T08:13:53;19.27;;;7.95;;
37339;SDS011;23223;51.006;7.610;2023-11-22T08:16:22;15.45;;;6.57;;
37339;SDS011;23223;51.006;7.610;2023-11-22T08:18:48;16.70;;;6.45;;
37339;SDS011;23223;51.006;7.610;2023-11-22T08:21:14;12.45;;;6.55;;
37339;SDS011;23223;51.006;7.610;2023-11-22T08:23:39;10.30;;;6.57;;
37339;SDS011;23223;51.006;7.610;2023-11-22T08:26:05;8.25;;;5.18;;
37339;SDS011;23223;51.006;7.610;2023-11-22T08:28:31;7.28;;;4.75;;
37339;SDS011;23223;51.006;7.610;2023-11-22T08:30:57;12.32;;;5.22;;
37339;SDS011;23223;51.006;7.610;2023-11-22T08:33:22;12.00;;;5.82;;
37339;SDS011;23223;51.006;7.610;2023-11-22T08:35:48;11.60;;;6.55;;
37339;SDS011;23223;51.006;7.610;2023-11-22T08:38:17;8.45;;;4.97;;
37339;SDS011;23223;51.006;7.610;2023-11-22T08:40:44;10.57;;;5.47;;
37339;SDS011;23223;51.006;7.610;2023-11-22T08:43:09;13.68;;;6.15;;
37339;SDS011;23223;51.006;7.610;2023-11-22T08:45:35;9.23;;;6.13;;
37339;SDS011;23223;51.006;7.610;2023-11-22T08:48:00;11.52;;;7.78;;
37339;SDS011;23223;51.006;7.610;2023-11-22T08:50:26;11.98;;;7.13;;
37339;SDS011;23223;51.006;7.610;2023-11-22T08:52:52;20.75;;;8.25;;
37339;SDS011;23223;51.006;7.610;2023-11-22T08:55:18;13.68;;;6.68;;
37339;SDS011;23223;51.006;7.610;2023-11-22T08:57:47;11.60;;;5.85;;
37339;SDS011;23223;51.006;7.610;2023-11-22T09:00:13;96.68;;;14.80;;
37339;SDS011;23223;51.006;7.610;2023-11-22T09:02:39;10.88;;;4.95;;
37339;SDS011;23223;51.006;7.610;2023-11-22T09:05:06;11.77;;;5.00;;
37339;SDS011;23223;51.006;7.610;2023-11-22T09:07:33;6.65;;;5.25;;
37339;SDS011;23223;51.006;7.610;2023-11-22T09:10:01;11.30;;;5.00;;
37339;SDS011;23223;51.006;7.610;2023-11-22T09:12:34;8.57;;;4.30;;
37339;SDS011;23223;51.006;7.610;2023-11-22T09:15:12;14.55;;;5.75;;
37339;SDS011;23223;51.006;7.610;2023-11-22T09:17:41;12.70;;;4.28;;
37339;SDS011;23223;51.006;7.610;2023-11-22T09:20:17;6.97;;;4.40;;
37339;SDS011;23223;51.006;7.610;2023-11-22T09:22:48;9.15;;;4.72;;
37339;SDS011;23223;51.006;7.610;2023-11-22T09:25:16;5.95;;;3.97;;
37339;SDS011;23223;51.006;7.610;2023-11-22T09:27:44;10.88;;;3.45;;
37339;SDS011;23223;51.006;7.610;2023-11-22T09:30:12;8.35;;;4.03;;
37339;SDS011;23223;51.006;7.610;2023-11-22T09:32:45;7.13;;;4.15;;
37339;SDS011;23223;51.006;7.610;2023-11-22T09:35:13;7.68;;;3.45;;
37339;SDS011;23223;51.006;7.610;2023-11-22T09:37:40;6.97;;;2.70;;
37339;SDS011;23223;51.006;7.610;2023-11-22T09:40:09;5.75;;;2.75;;
37339;SDS011;23223;51.006;7.610;2023-11-22T09:42:36;6.20;;;3.08;;
37339;SDS011;23223;51.006;7.610;2023-11-22T09:45:02;7.18;;;4.28;;
37339;SDS011;23223;51.006;7.610;2023-11-22T09:47:28;4.35;;;2.60;;
37339;SDS011;23223;51.006;7.610;2023-11-22T09:49:57;4.47;;;3.13;;
37339;SDS011;23223;51.006;7.610;2023-11-22T09:52:25;3.97;;;2.50;;
37339;SDS011;23223;51.006;7.610;2023-11-22T09:54:53;5.50;;;2.58;;
37339;SDS011;23223;51.006;7.610;2023-11-22T09:57:20;5.85;;;3.38;;
37339;SDS011;23223;51.006;7.610;2023-11-22T09:59:49;7.47;;;3.25;;
37339;SDS011;23223;51.006;7.610;2023-11-22T10:02:17;11.18;;;3.15;;
37339;SDS011;23223;51.006;7.610;2023-11-22T10:04:43;5.32;;;3.22;;
37339;SDS011;23223;51.006;7.610;2023-11-22T10:07:10;7.30;;;2.47;;
37339;SDS011;23223;51.006;7.610;2023-11-22T10:09:36;2.92;;;2.20;;
37339;SDS011;23223;51.006;7.610;2023-11-22T10:12:03;2.70;;;2.15;;
37339;SDS011;23223;51.006;7.610;2023-11-22T10:14:30;4.55;;;2.00;;
37339;SDS011;23223;51.006;7.610;2023-11-22T10:16:59;3.33;;;2.13;;
37339;SDS011;23223;51.006;7.610;2023-11-22T10:19:26;5.80;;;2.47;;
37339;SDS011;23223;51.006;7.610;2023-11-22T10:22:04;4.55;;;2.80;;
37339;SDS011;23223;51.006;7.610;2023-11-22T10:24:31;3.75;;;1.98;;
37339;SDS011;23223;51.006;7.610;2023-11-22T10:27:00;8.55;;;6.13;;
37339;SDS011;23223;51.006;7.610;2023-11-22T10:29:27;3.80;;;3.42;;
37339;SDS011;23223;51.006;7.610;2023-11-22T10:31:53;3.25;;;2.95;;
37339;SDS011;23223;51.006;7.610;2023-11-22T10:34:20;3.25;;;2.60;;
37339;SDS011;23223;51.006;7.610;2023-11-22T10:36:47;5.18;;;2.42;;
37339;SDS011;23223;51.006;7.610;2023-11-22T10:39:14;2.85;;;1.90;;
37339;SDS011;23223;51.006;7.610;2023-11-22T10:41:47;2.55;;;2.20;;
37339;SDS011;23223;51.006;7.610;2023-11-22T10:44:15;2.05;;;1.88;;
37339;SDS011;23223;51.006;7.610;2023-11-22T10:46:41;3.83;;;2.60;;
37339;SDS011;23223;51.006;7.610;2023-11-22T10:49:07;5.15;;;2.60;;
37339;SDS011;23223;51.006;7.610;2023-11-22T10:51:33;3.10;;;1.85;;
37339;SDS011;23223;51.006;7.610;2023-11-22T10:54:00;6.47;;;2.55;;
37339;SDS011;23223;51.006;7.610;2023-11-22T10:56:28;2.60;;;1.52;;
37339;SDS011;23223;51.006;7.610;2023-11-22T10:59:02;2.83;;;1.90;;
37339;SDS011;23223;51.006;7.610;2023-11-22T11:01:35;3.67;;;1.92;;
37339;SDS011;23223;51.006;7.610;2023-11-22T11:04:02;2.75;;;2.00;;
37339;SDS011;23223;51.006;7.610;2023-11-22T11:06:31;8.98;;;2.55;;
37339;SDS011;23223;51.006;7.610;2023-11-22T11:09:00;2.85;;;1.98;;
37339;SDS011;23223;51.006;7.610;2023-11-22T11:11:27;16.52;;;4.50;;
37339;SDS011;23223;51.006;7.610;2023-11-22T11:13:54;3.72;;;1.73;;
37339;SDS011;23223;51.006;7.610;2023-11-22T11:16:20;3.60;;;1.90;;
37339;SDS011;23223;51.006;7.610;2023-11-22T11:18:47;2.78;;;1.70;;
37339;SDS011;23223;51.006;7.610;2023-11-22T11:21:14;8.02;;;2.08;;
37339;SDS011;23223;51.006;7.610;2023-11-22T11:23:40;3.17;;;2.08;;
37339;SDS011;23223;51.006;7.610;2023-11-22T11:26:09;4.55;;;1.95;;
37339;SDS011;23223;51.006;7.610;2023-11-22T11:28:47;3.65;;;1.70;;
37339;SDS011;23223;51.006;7.610;2023-11-22T11:31:13;7.07;;;3.40;;
37339;SDS011;23223;51.006;7.610;2023-11-22T11:33:53;17.83;;;3.70;;
37339;SDS011;23223;51.006;7.610;2023-11-22T11:36:24;4.28;;;1.98;;
37339;SDS011;23223;51.006;7.610;2023-11-22T11:38:51;5.53;;;2.22;;
37339;SDS011;23223;51.006;7.610;2023-11-22T11:41:18;3.20;;;1.73;;
37339;SDS011;23223;51.006;7.610;2023-11-22T11:43:47;7.85;;;2.00;;
37339;SDS011;23223;51.006;7.610;2023-11-22T11:46:14;5.50;;;1.98;;
37339;SDS011;23223;51.006;7.610;2023-11-22T11:51:14;2.47;;;1.85;;
37339;SDS011;23223;51.006;7.610;2023-11-22T11:53:40;3.72;;;1.90;;
37339;SDS011;23223;51.006;7.610;2023-11-22T11:56:06;1.40;;;1.30;;
37339;SDS011;23223;51.006;7.610;2023-11-22T11:58:32;3.55;;;1.67;;
37339;SDS011;23223;51.006;7.610;2023-11-22T12:00:58;2.58;;;1.73;;
37339;SDS011;23223;51.006;7.610;2023-11-22T12:03:24;3.00;;;1.95;;
37339;SDS011;23223;51.006;7.610;2023-11-22T12:05:50;1.70;;;1.60;;
37339;SDS011;23223;51.006;7.610;2023-11-22T12:08:15;1.55;;;1.45;;
37339;SDS011;23223;51.006;7.610;2023-11-22T12:10:42;1.60;;;1.50;;
37339;SDS011;23223;51.006;7.610;2023-11-22T12:13:08;2.33;;;1.52;;
37339;SDS011;23223;51.006;7.610;2023-11-22T12:15:34;2.00;;;1.75;;
37339;SDS011;23223;51.006;7.610;2023-11-22T12:18:01;1.30;;;1.15;;
37339;SDS011;23223;51.006;7.610;2023-11-22T12:20:26;7.85;;;1.70;;
37339;SDS011;23223;51.006;7.610;2023-11-22T12:22:57;2.97;;;1.40;;
37339;SDS011;23223;51.006;7.610;2023-11-22T12:25:26;2.88;;;1.50;;
37339;SDS011;23223;51.006;7.610;2023-11-22T12:27:53;5.72;;;1.80;;
37339;SDS011;23223;51.006;7.610;2023-11-22T12:33:07;2.50;;;1.40;;
37339;SDS011;23223;51.006;7.610;2023-11-22T12:35:40;1.75;;;1.65;;
37339;SDS011;23223;51.006;7.610;2023-11-22T12:38:09;1.27;;;1.17;;
37339;SDS011;23223;51.006;7.610;2023-11-22T12:40:35;2.97;;;1.52;;
37339;SDS011;23223;51.006;7.610;2023-11-22T12:43:01;5.20;;;1.30;;
37339;SDS011;23223;51.006;7.610;2023-11-22T12:45:28;1.35;;;1.25;;
37339;SDS011;23223;51.006;7.610;2023-11-22T12:47:55;2.80;;;1.50;;
37339;SDS011;23223;51.006;7.610;2023-11-22T12:53:12;1.40;;;1.30;;
37339;SDS011;23223;51.006;7.610;2023-11-22T12:55:42;2.60;;;1.73;;
37339;SDS011;23223;51.006;7.610;2023-11-22T12:58:13;2.75;;;1.80;;
37339;SDS011;23223;51.006;7.610;2023-11-22T13:00:39;4.88;;;1.48;;
37339;SDS011;23223;51.006;7.610;2023-11-22T13:03:08;3.05;;;1.30;;
37339;SDS011;23223;51.006;7.610;2023-11-22T13:05:37;3.28;;;1.65;;
37339;SDS011;23223;51.006;7.610;2023-11-22T13:08:03;2.75;;;1.38;;
37339;SDS011;23223;51.006;7.610;2023-11-22T13:10:29;3.53;;;1.25;;
37339;SDS011;23223;51.006;7.610;2023-11-22T13:12:55;1.20;;;1.10;;
37339;SDS011;23223;51.006;7.610;2023-11-22T13:15:21;6.18;;;1.50;;
37339;SDS011;23223;51.006;7.610;2023-11-22T13:17:48;16.15;;;2.53;;
37339;SDS011;23223;51.006;7.610;2023-11-22T13:20:15;2.05;;;1.30;;
37339;SDS011;23223;51.006;7.610;2023-11-22T13:22:41;2.60;;;1.33;;
37339;SDS011;23223;51.006;7.610;2023-11-22T13:25:08;2.55;;;1.25;;
37339;SDS011;23223;51.006;7.610;2023-11-22T13:27:38;2.33;;;1.55;;
37339;SDS011;23223;51.006;7.610;2023-11-22T13:30:04;1.70;;;1.33;;
37339;SDS011;23223;51.006;7.610;2023-11-22T13:32:30;3.63;;;1.48;;
37339;SDS011;23223;51.006;7.610;2023-11-22T13:34:56;5.25;;;1.98;;
37339;SDS011;23223;51.006;7.610;2023-11-22T13:37:25;7.00;;;2.70;;
37339;SDS011;23223;51.006;7.610;2023-11-22T13:39:50;4.60;;;1.48;;
37339;SDS011;23223;51.006;7.610;2023-11-22T13:42:17;3.45;;;1.40;;
37339;SDS011;23223;51.006;7.610;2023-11-22T13:44:42;4.32;;;1.70;;
37339;SDS011;23223;51.006;7.610;2023-11-22T13:47:12;8.80;;;1.48;;
37339;SDS011;23223;51.006;7.610;2023-11-22T13:49:39;2.22;;;1.30;;
37339;SDS011;23223;51.006;7.610;2023-11-22T13:52:05;1.13;;;1.00;;
37339;SDS011;23223;51.006;7.610;2023-11-22T13:54:31;2.58;;;1.38;;
37339;SDS011;23223;51.006;7.610;2023-11-22T13:57:02;3.28;;;1.60;;
37339;SDS011;23223;51.006;7.610;2023-11-22T13:59:29;2.95;;;1.73;;
37339;SDS011;23223;51.006;7.610;2023-11-22T14:01:54;2.10;;;1.40;;
37339;SDS011;23223;51.006;7.610;2023-11-22T14:04:20;2.25;;;1.63;;
37339;SDS011;23223;51.006;7.610;2023-11-22T14:06:45;1.70;;;1.52;;
37339;SDS011;23223;51.006;7.610;2023-11-22T14:09:11;1.60;;;1.35;;
37339;SDS011;23223;51.006;7.610;2023-11-22T14:11:39;1.40;;;1.30;;
37339;SDS011;23223;51.006;7.610;2023-11-22T14:14:05;6.35;;;1.75;;
37339;SDS011;23223;51.006;7.610;2023-11-22T14:16:30;3.88;;;2.15;;
37339;SDS011;23223;51.006;7.610;2023-11-22T14:18:56;2.45;;;1.50;;
37339;SDS011;23223;51.006;7.610;2023-11-22T14:21:22;1.80;;;1.58;;
37339;SDS011;23223;51.006;7.610;2023-11-22T14:23:49;2.90;;;1.48;;
37339;SDS011;23223;51.006;7.610;2023-11-22T14:26:15;3.10;;;1.95;;
37339;SDS011;23223;51.006;7.610;2023-11-22T14:28:41;3.28;;;1.98;;
37339;SDS011;23223;51.006;7.610;2023-11-22T14:31:08;3.17;;;2.13;;
37339;SDS011;23223;51.006;7.610;2023-11-22T14:33:34;3.75;;;1.85;;
37339;SDS011;23223;51.006;7.610;2023-11-22T14:36:00;2.67;;;1.70;;
37339;SDS011;23223;51.006;7.610;2023-11-22T14:38:26;6.80;;;1.80;;
37339;SDS011;23223;51.006;7.610;2023-11-22T14:40:51;2.35;;;1.85;;
37339;SDS011;23223;51.006;7.610;2023-11-22T14:43:17;2.20;;;1.65;;
37339;SDS011;23223;51.006;7.610;2023-11-22T14:45:43;3.13;;;2.20;;
37339;SDS011;23223;51.006;7.610;2023-11-22T14:48:09;2.03;;;1.67;;
37339;SDS011;23223;51.006;7.610;2023-11-22T14:50:35;8.80;;;1.95;;